Time;durP1;ratioP1;P1;durP2;ratioP2;P2;SDS_P1;SDS_P2;PMS_P1;PMS_P2;Temp;Humidity;BMP_temperature;BMP_pressure;BME280_temperature;BME280_humidity;BME280_pressure;Samples;Min_cycle;Max_cycle;Signal;HPM_P1;HPM_P2
2022/10/27 04:02:26;;;;;;;10.60;4.33;;;11.00;99.90;;;;;;5122710;22;20637;-74
2022/10/27 04:04:56;;;;;;;8.20;3.87;;;11.00;99.90;;;;;;5005454;28;20455;-74
2022/10/27 04:07:23;;;;;;;6.60;3.63;;;11.00;99.90;;;;;;5006371;28;20447;-74
2022/10/27 04:09:49;;;;;;;6.87;3.77;;;11.00;99.90;;;;;;5006542;28;20961;-74
2022/10/27 04:12:16;;;;;;;4.70;3.53;;;11.00;99.90;;;;;;5006097;28;20486;-74
2022/10/27 04:14:43;;;;;;;5.70;4.27;;;11.00;99.90;;;;;;5006155;28;21192;-74
2022/10/27 04:17:09;;;;;;;5.00;4.03;;;11.00;99.90;;;;;;5007162;28;20470;-74
2022/10/27 04:19:38;;;;;;;7.60;3.80;;;10.90;99.90;;;;;;5005540;28;20458;-74
2022/10/27 04:22:04;;;;;;;5.93;4.37;;;10.90;99.90;;;;;;5006981;28;20475;-74
2022/10/27 04:24:31;;;;;;;9.90;4.93;;;10.90;99.90;;;;;;5006322;28;20458;-74
2022/10/27 04:26:58;;;;;;;6.17;4.07;;;10.90;99.90;;;;;;5007127;28;20474;-74
2022/10/27 04:29:25;;;;;;;8.90;4.83;;;10.90;99.90;;;;;;5004995;28;20474;-74
2022/10/27 04:31:51;;;;;;;7.90;4.20;;;10.90;99.90;;;;;;5007099;28;20483;-74
2022/10/27 04:34:18;;;;;;;7.00;4.17;;;10.80;99.90;;;;;;5006525;28;20470;-74
2022/10/27 04:36:46;;;;;;;10.93;4.10;;;10.80;99.90;;;;;;5007049;28;21125;-74
2022/10/27 04:39:14;;;;;;;6.70;4.70;;;10.80;99.90;;;;;;5006362;28;20481;-67
2022/10/27 04:41:41;;;;;;;9.00;4.53;;;10.80;99.90;;;;;;5006374;28;20479;-67
2022/10/27 04:44:07;;;;;;;5.63;3.30;;;10.80;99.90;;;;;;5004323;28;20466;-76
2022/10/27 04:46:34;;;;;;;8.93;3.70;;;10.80;99.90;;;;;;5005304;28;20458;-77
2022/10/27 04:49:01;;;;;;;4.73;3.40;;;10.80;99.90;;;;;;5005306;28;20454;-76
2022/10/27 04:51:28;;;;;;;5.57;3.60;;;10.80;99.90;;;;;;5005383;28;20471;-76
2022/10/27 04:53:56;;;;;;;4.30;3.40;;;10.70;99.90;;;;;;5004999;28;21041;-76
2022/10/27 04:56:23;;;;;;;5.23;3.73;;;10.70;99.90;;;;;;5004559;28;20490;-77
2022/10/27 04:58:49;;;;;;;4.53;4.00;;;10.80;99.90;;;;;;5005473;28;20457;-76
2022/10/27 05:01:16;;;;;;;4.50;4.10;;;10.80;99.90;;;;;;5005283;28;20507;-76
2022/10/27 05:03:43;;;;;;;4.63;4.13;;;10.80;99.90;;;;;;5005324;28;20466;-77
2022/10/27 05:06:10;;;;;;;10.93;4.50;;;10.70;99.90;;;;;;5005651;28;20459;-77
2022/10/27 05:08:36;;;;;;;4.73;3.73;;;10.70;99.90;;;;;;5006581;28;20951;-77
2022/10/27 05:11:05;;;;;;;5.40;3.43;;;10.70;99.90;;;;;;5006755;28;20490;-78
2022/10/27 05:13:32;;;;;;;3.97;3.60;;;10.60;99.90;;;;;;5007125;28;20470;-78
2022/10/27 05:16:01;;;;;;;6.13;3.77;;;10.70;99.90;;;;;;5006139;28;20493;-78
2022/10/27 05:18:28;;;;;;;11.23;4.60;;;10.60;99.90;;;;;;5006632;28;20458;-78
2022/10/27 05:20:55;;;;;;;5.57;4.00;;;10.60;99.90;;;;;;5006003;28;20474;-79
2022/10/27 05:23:22;;;;;;;5.57;4.30;;;10.60;99.90;;;;;;5007204;28;20467;-78
2022/10/27 05:25:51;;;;;;;5.40;3.87;;;10.60;99.90;;;;;;5006338;28;20463;-77
2022/10/27 05:28:19;;;;;;;5.73;4.10;;;10.60;99.90;;;;;;5006404;28;20463;-78
2022/10/27 05:30:46;;;;;;;6.90;4.27;;;10.60;99.90;;;;;;5007123;28;20485;-78
2022/10/27 05:33:13;;;;;;;5.50;4.23;;;10.60;99.90;;;;;;5006923;28;20458;-77
2022/10/27 05:35:40;;;;;;;6.20;5.00;;;10.60;99.90;;;;;;5006617;28;20486;-77
2022/10/27 05:38:06;;;;;;;9.97;5.30;;;10.60;99.90;;;;;;5006462;28;20471;-77
2022/10/27 05:40:34;;;;;;;9.80;4.50;;;10.60;99.90;;;;;;5005758;28;20488;-77
2022/10/27 05:43:02;;;;;;;7.03;4.60;;;10.60;99.90;;;;;;5006011;28;20529;-77
2022/10/27 05:45:31;;;;;;;12.07;4.60;;;10.60;99.90;;;;;;5004846;28;20451;-76
2022/10/27 05:47:59;;;;;;;6.13;4.50;;;10.50;99.90;;;;;;5005151;28;20935;-75
2022/10/27 05:50:26;;;;;;;5.77;4.47;;;10.50;99.90;;;;;;5005747;28;20455;-76
2022/10/27 05:52:53;;;;;;;5.03;4.50;;;10.50;99.90;;;;;;5005745;28;20458;-76
2022/10/27 05:55:20;;;;;;;8.83;5.30;;;10.50;99.90;;;;;;5004500;28;20490;-75
2022/10/27 05:57:53;;;;;;;14.33;6.07;;;10.50;99.90;;;;;;5005453;28;20489;-76
2022/10/27 06:00:20;;;;;;;7.13;4.70;;;10.50;99.90;;;;;;5005575;28;20906;-76
2022/10/27 06:02:49;;;;;;;6.40;4.53;;;10.50;99.90;;;;;;5006013;28;20443;-76
2022/10/27 06:05:16;;;;;;;9.60;4.93;;;10.50;99.90;;;;;;5004816;28;20473;-76
2022/10/27 06:07:43;;;;;;;8.90;5.53;;;10.50;99.90;;;;;;5005689;28;20830;-75
2022/10/27 06:10:10;;;;;;;8.57;4.67;;;10.50;99.90;;;;;;5005977;28;20466;-75
2022/10/27 06:12:36;;;;;;;9.30;5.50;;;10.50;99.90;;;;;;5005560;28;20462;-76
2022/10/27 06:15:03;;;;;;;8.43;5.83;;;10.50;99.90;;;;;;5004790;28;20501;-76
2022/10/27 06:17:30;;;;;;;6.13;5.53;;;10.50;99.90;;;;;;5005627;28;20458;-77
2022/10/27 06:19:58;;;;;;;9.10;6.10;;;10.40;99.90;;;;;;5005309;28;20458;-76
2022/10/27 06:22:25;;;;;;;8.60;5.10;;;10.40;99.90;;;;;;5003465;28;20708;-75
2022/10/27 06:24:52;;;;;;;8.33;5.17;;;10.40;99.90;;;;;;5004596;28;20462;-76
2022/10/27 06:27:19;;;;;;;12.20;6.37;;;10.40;99.90;;;;;;5007400;28;20467;-75
2022/10/27 06:29:46;;;;;;;11.30;5.27;;;10.40;99.90;;;;;;5008803;28;20466;-76
2022/10/27 06:32:12;;;;;;;7.30;5.30;;;10.40;99.90;;;;;;5008994;28;20478;-75
2022/10/27 06:34:39;;;;;;;7.40;4.63;;;10.40;99.90;;;;;;5007934;28;20462;-75
2022/10/27 06:37:07;;;;;;;10.60;4.57;;;10.40;99.90;;;;;;5008649;28;20458;-75
2022/10/27 06:39:34;;;;;;;4.50;4.03;;;10.40;99.90;;;;;;5008854;28;20833;-75
2022/10/27 06:42:01;;;;;;;6.10;4.43;;;10.40;99.90;;;;;;5008361;28;20481;-75
2022/10/27 06:44:27;;;;;;;8.63;4.97;;;10.40;99.90;;;;;;5008045;28;20454;-75
2022/10/27 06:46:54;;;;;;;6.20;5.37;;;10.40;99.90;;;;;;5008539;28;20454;-76
2022/10/27 06:49:21;;;;;;;5.00;4.27;;;10.40;99.90;;;;;;5008559;28;20458;-75
2022/10/27 06:51:48;;;;;;;7.13;4.40;;;10.40;99.90;;;;;;5008219;28;20478;-76
2022/10/27 06:54:16;;;;;;;8.00;4.97;;;10.50;99.90;;;;;;5008033;28;20481;-75
2022/10/27 06:56:42;;;;;;;6.17;4.60;;;10.50;99.90;;;;;;5008343;28;20498;-75
2022/10/27 06:59:09;;;;;;;5.43;4.33;;;10.50;99.90;;;;;;5008126;28;20458;-75
2022/10/27 07:01:36;;;;;;;6.27;4.70;;;10.50;99.90;;;;;;5008143;28;21037;-75
2022/10/27 07:04:03;;;;;;;7.73;5.07;;;10.50;99.90;;;;;;5007415;28;20459;-75
2022/10/27 07:06:29;;;;;;;6.73;4.63;;;10.50;99.90;;;;;;5008049;28;20450;-76
2022/10/27 07:08:56;;;;;;;5.97;5.00;;;10.50;99.90;;;;;;5008296;28;20467;-75
2022/10/27 07:11:27;;;;;;;8.83;4.83;;;10.50;99.90;;;;;;5007054;28;20478;-75
2022/10/27 07:13:54;;;;;;;5.60;4.90;;;10.50;99.90;;;;;;5007485;28;20451;-75
2022/10/27 07:16:21;;;;;;;12.47;5.33;;;10.50;99.90;;;;;;5007181;28;20547;-75
2022/10/27 07:18:48;;;;;;;6.77;5.30;;;10.50;99.90;;;;;;5007663;28;20467;-75
2022/10/27 07:21:15;;;;;;;9.73;6.10;;;10.60;99.90;;;;;;5007655;28;21029;-76
2022/10/27 07:23:41;;;;;;;8.00;5.70;;;10.60;99.90;;;;;;5006103;28;20466;-75
2022/10/27 07:26:08;;;;;;;10.40;5.47;;;10.60;99.90;;;;;;5006803;28;20566;-75
2022/10/27 07:28:37;;;;;;;11.07;5.90;;;10.60;99.90;;;;;;5007724;28;20454;-77
2022/10/27 07:31:04;;;;;;;12.30;6.60;;;10.70;99.90;;;;;;5007634;28;20489;-76
2022/10/27 07:33:31;;;;;;;13.03;7.23;;;10.70;99.90;;;;;;5007427;28;20963;-75
2022/10/27 07:35:57;;;;;;;14.70;8.03;;;10.80;99.90;;;;;;5005816;28;20490;-75
2022/10/27 07:38:24;;;;;;;15.50;7.27;;;10.80;99.90;;;;;;5006648;28;20446;-77
2022/10/27 07:40:51;;;;;;;13.90;8.73;;;10.90;99.90;;;;;;5007814;28;20475;-76
2022/10/27 07:43:18;;;;;;;20.40;8.30;;;11.00;99.90;;;;;;5007482;28;20470;-75
2022/10/27 07:45:46;;;;;;;14.17;7.20;;;11.00;99.90;;;;;;5007089;28;20900;-76
2022/10/27 07:48:15;;;;;;;16.53;7.20;;;11.10;99.90;;;;;;5007124;28;20463;-76
2022/10/27 07:50:43;;;;;;;13.57;8.13;;;11.10;99.90;;;;;;5007316;28;21201;-77
2022/10/27 07:53:10;;;;;;;9.00;7.67;;;11.20;99.90;;;;;;5007530;28;20458;-75
2022/10/27 07:55:38;;;;;;;14.40;7.27;;;11.20;99.90;;;;;;5006380;28;20498;-76
2022/10/27 07:58:06;;;;;;;13.17;6.83;;;11.30;99.90;;;;;;5007116;28;20466;-76
2022/10/27 08:00:35;;;;;;;17.17;7.07;;;11.40;99.90;;;;;;5006777;28;20478;-75
2022/10/27 08:03:04;;;;;;;14.47;6.97;;;11.50;99.90;;;;;;5007175;28;20471;-76
2022/10/27 08:05:33;;;;;;;10.90;6.80;;;11.60;99.90;;;;;;5006508;28;20803;-76
2022/10/27 08:08:02;;;;;;;11.47;7.13;;;11.70;99.90;;;;;;5007187;28;20455;-76
2022/10/27 08:10:30;;;;;;;11.10;7.20;;;11.80;99.90;;;;;;5007097;28;20468;-75
2022/10/27 08:12:57;;;;;;;10.90;7.37;;;11.90;99.90;;;;;;5006794;28;20458;-76
2022/10/27 08:15:24;;;;;;;12.17;6.90;;;12.10;99.90;;;;;;5005954;28;20467;-75
2022/10/27 08:17:52;;;;;;;10.90;6.50;;;12.20;99.90;;;;;;5006754;28;20827;-76
2022/10/27 08:20:22;;;;;;;10.20;6.70;;;12.30;99.90;;;;;;5006496;28;20455;-76
2022/10/27 08:22:54;;;;;;;8.33;6.50;;;12.50;99.90;;;;;;5006863;28;20882;-76
2022/10/27 08:25:21;;;;;;;11.60;7.40;;;12.60;99.90;;;;;;5004344;28;20962;-76
2022/10/27 08:27:48;;;;;;;12.97;7.10;;;12.80;99.90;;;;;;5006890;28;20447;-77
2022/10/27 08:30:15;;;;;;;9.60;6.30;;;12.90;99.90;;;;;;5006807;28;20462;-76
2022/10/27 08:32:41;;;;;;;8.73;6.33;;;13.00;99.90;;;;;;5006599;28;20462;-76
2022/10/27 08:35:09;;;;;;;9.13;6.10;;;13.10;99.90;;;;;;5005830;28;20477;-77
2022/10/27 08:37:37;;;;;;;10.40;6.60;;;13.40;99.90;;;;;;5006553;28;20501;-77
2022/10/27 08:40:05;;;;;;;10.80;6.10;;;13.50;99.90;;;;;;5006056;28;20459;-76
2022/10/27 08:42:40;;;;;;;13.97;6.50;;;13.70;99.90;;;;;;5006759;28;20509;-76
2022/10/27 08:45:10;;;;;;;10.03;6.43;;;13.80;99.90;;;;;;5005951;28;20453;-77
2022/10/27 08:47:37;;;;;;;11.40;5.40;;;14.00;99.90;;;;;;5006050;28;21284;-76
2022/10/27 08:50:10;;;;;;;9.93;5.70;;;14.10;99.90;;;;;;5006116;28;20467;-76
2022/10/27 08:52:41;;;;;;;11.93;5.77;;;14.40;99.90;;;;;;5006112;28;20446;-76
2022/10/27 08:55:21;;;;;;;15.10;5.87;;;14.60;99.90;;;;;;5004229;28;20454;-77
2022/10/27 08:57:55;;;;;;;7.73;5.43;;;15.00;99.90;;;;;;5005386;28;20498;-77
2022/10/27 09:00:22;;;;;;;9.00;5.50;;;15.20;99.90;;;;;;5005213;28;20447;-77
2022/10/27 09:03:04;;;;;;;9.33;5.37;;;15.40;99.90;;;;;;5004910;28;20447;-77
2022/10/27 09:05:44;;;;;;;7.83;5.10;;;15.60;99.90;;;;;;5004584;28;20443;-77
2022/10/27 09:08:23;;;;;;;15.63;5.43;;;15.70;99.90;;;;;;5004961;28;20463;-77
2022/10/27 09:10:59;;;;;;;12.03;5.30;;;15.90;99.90;;;;;;5004912;28;20482;-77
2022/10/27 09:13:41;;;;;;;8.07;5.50;;;16.10;99.90;;;;;;5005729;28;20450;-78
2022/10/27 09:16:14;;;;;;;9.67;4.83;;;16.20;99.90;;;;;;5004656;28;20501;-78
2022/10/27 09:18:44;;;;;;;10.40;4.90;;;16.60;99.90;;;;;;5005388;28;20463;-78
2022/10/27 09:21:15;;;;;;;9.50;5.40;;;17.10;99.90;;;;;;5005011;28;20475;-78
2022/10/27 09:23:46;;;;;;;14.23;4.80;;;17.10;99.90;;;;;;5003997;28;20455;-78
2022/10/27 09:26:16;;;;;;;9.40;4.17;;;17.10;99.90;;;;;;5005483;28;20443;-78
2022/10/27 09:28:48;;;;;;;14.53;4.03;;;17.20;99.90;;;;;;5006046;28;20494;-78
2022/10/27 09:31:18;;;;;;;11.63;3.60;;;17.60;99.90;;;;;;5005601;28;20489;-79
2022/10/27 09:33:51;;;;;;;11.10;3.80;;;17.80;99.90;;;;;;5006168;28;20446;-79
2022/10/27 09:36:21;;;;;;;11.83;4.00;;;18.00;99.90;;;;;;5004939;28;20495;-79
2022/10/27 09:38:49;;;;;;;10.40;4.17;;;18.50;99.90;;;;;;5005797;28;20462;-79
2022/10/27 09:41:16;;;;;;;12.83;3.80;;;18.60;99.90;;;;;;5005506;28;20482;-79
2022/10/27 09:43:43;;;;;;;7.37;4.50;;;18.80;99.90;;;;;;5005364;28;21343;-79
2022/10/27 09:46:28;;;;;;;8.97;3.80;;;19.00;99.90;;;;;;5005051;28;20462;-79
2022/10/27 09:48:58;;;;;;;14.37;4.27;;;19.30;99.90;;;;;;5005720;28;20446;-79
2022/10/27 09:51:28;;;;;;;13.40;4.07;;;19.70;99.90;;;;;;5005684;28;20501;-79
2022/10/27 09:53:56;;;;;;;14.30;4.13;;;19.80;99.90;;;;;;5005573;28;20470;-76
2022/10/27 09:56:29;;;;;;;10.83;3.70;;;20.10;99.90;;;;;;5005315;28;20843;-77
2022/10/27 09:59:00;;;;;;;14.33;4.03;;;20.20;99.90;;;;;;5005546;28;20467;-79
2022/10/27 10:01:28;;;;;;;8.60;3.70;;;20.60;99.90;;;;;;5005434;28;20490;-79
2022/10/27 10:04:02;;;;;;;9.07;4.00;;;20.50;99.90;;;;;;5009706;28;20458;-79
2022/10/27 10:06:36;;;;;;;11.80;3.40;;;20.80;99.90;;;;;;5009341;28;20446;-79
2022/10/27 10:09:25;;;;;;;11.00;3.03;;;21.10;99.90;;;;;;5009514;28;20462;-79
2022/10/27 10:12:11;;;;;;;10.90;3.53;;;21.50;99.90;;;;;;5009518;28;20501;-79
2022/10/27 10:14:38;;;;;;;7.03;3.33;;;21.50;99.90;;;;;;5008477;28;20458;-77
2022/10/27 10:17:05;;;;;;;7.93;3.50;;;21.40;99.90;;;;;;5008750;28;20490;-76
2022/10/27 10:19:32;;;;;;;8.70;3.00;;;21.50;99.90;;;;;;5009209;28;20465;-79
2022/10/27 10:22:00;;;;;;;9.80;3.80;;;21.90;99.90;;;;;;5012451;28;20478;-80
2022/10/27 10:24:32;;;;;;;12.67;3.40;;;21.90;99.90;;;;;;5008827;28;20454;-80
2022/10/27 10:27:01;;;;;;;11.50;3.53;;;22.10;99.90;;;;;;5009824;28;20465;-79
2022/10/27 10:29:31;;;;;;;8.53;2.97;;;22.10;99.90;;;;;;5008705;28;20454;-80
2022/10/27 10:32:13;;;;;;;6.40;2.77;;;22.60;99.90;;;;;;5009973;28;20475;-79
2022/10/27 10:34:41;;;;;;;10.27;3.50;;;23.00;99.90;;;;;;5008386;28;20450;-79
2022/10/27 10:37:34;;;;;;;6.33;3.00;;;23.40;99.90;;;;;;5009401;28;20498;-80
2022/10/27 10:40:28;;;;;;;8.90;2.77;;;23.80;99.90;;;;;;5008511;28;20464;-73
2022/10/27 10:43:11;;;;;;;6.40;3.70;;;24.20;99.90;;;;;;5008401;28;20443;-69
2022/10/27 10:45:38;;;;;;;6.30;2.80;;;24.00;99.90;;;;;;5007889;28;21158;-71
2022/10/27 10:48:15;;;;;;;6.23;2.93;;;24.10;99.90;;;;;;5008504;28;20454;-69
2022/10/27 10:50:46;;;;;;;10.60;3.30;;;24.30;99.90;;;;;;5008550;28;20474;-70
2022/10/27 10:53:25;;;;;;;9.77;4.17;;;24.40;99.90;;;;;;5008290;28;20905;-69
2022/10/27 10:55:55;;;;;;;9.20;3.10;;;24.60;99.90;;;;;;5007636;28;20438;-69
2022/10/27 10:58:25;;;;;;;6.60;2.83;;;24.70;99.90;;;;;;5008468;28;20506;-69
2022/10/27 11:00:57;;;;;;;9.50;3.70;;;25.30;99.90;;;;;;5008177;28;20491;-69
2022/10/27 11:03:27;;;;;;;5.67;2.83;;;25.70;99.90;;;;;;5008090;28;20463;-69
2022/10/27 11:05:58;;;;;;;9.60;2.90;;;25.70;99.90;;;;;;5007288;28;20462;-70
2022/10/27 11:08:32;;;;;;;11.03;3.07;;;25.70;99.90;;;;;;5008368;28;20504;-78
2022/10/27 11:11:03;;;;;;;5.27;2.90;;;25.70;99.90;;;;;;5007755;28;20510;-77
2022/10/27 11:13:37;;;;;;;8.93;2.83;;;25.90;99.90;;;;;;5005591;28;20955;-78
2022/10/27 11:16:06;;;;;;;12.33;3.00;;;26.20;99.90;;;;;;5007162;28;20450;-78
2022/10/27 11:18:41;;;;;;;9.60;2.63;;;26.10;99.90;;;;;;5007593;28;20865;-78
2022/10/27 11:21:14;;;;;;;10.50;2.90;;;26.10;99.90;;;;;;5007788;28;20516;-78
2022/10/27 11:23:45;;;;;;;9.50;3.00;;;26.30;99.90;;;;;;5007465;28;20446;-78
2022/10/27 11:26:16;;;;;;;7.50;3.23;;;26.50;99.90;;;;;;5006122;28;20451;-78
2022/10/27 11:28:51;;;;;;;7.83;2.70;;;26.50;99.90;;;;;;5007794;28;20439;-78
2022/10/27 11:31:25;;;;;;;9.53;2.80;;;26.40;99.90;;;;;;5007456;28;20990;-78
2022/10/27 11:33:58;;;;;;;9.00;2.63;;;26.60;99.90;;;;;;5008877;28;20443;-79
2022/10/27 11:36:32;;;;;;;11.20;2.80;;;27.00;99.90;;;;;;5007453;28;20458;-79
2022/10/27 11:39:05;;;;;;;10.83;2.80;;;27.10;99.90;;;;;;5008574;28;20443;-78
2022/10/27 11:41:40;;;;;;;6.37;3.23;;;27.20;99.90;;;;;;5008310;28;20474;-78
2022/10/27 11:44:18;;;;;;;11.03;3.03;;;27.70;99.90;;;;;;5008127;28;20453;-78
2022/10/27 11:46:52;;;;;;;8.23;2.70;;;27.70;99.90;;;;;;5005009;28;20454;-79
2022/10/27 11:49:27;;;;;;;9.63;2.50;;;27.80;99.90;;;;;;5007285;28;20465;-79
2022/10/27 11:52:00;;;;;;;6.00;2.40;;;28.00;99.90;;;;;;5007100;28;20470;-78
2022/10/27 11:54:28;;;;;;;9.23;2.60;;;27.80;99.90;;;;;;5006441;28;20447;-79
2022/10/27 11:57:08;;;;;;;11.70;2.57;;;27.90;99.90;;;;;;5006683;28;20499;-78
2022/10/27 11:59:51;;;;;;;7.87;2.73;;;28.10;99.90;;;;;;5007040;28;20466;-78
2022/10/27 12:02:40;;;;;;;9.37;2.80;;;28.00;99.90;;;;;;5006036;28;20497;-79
2022/10/27 12:05:10;;;;;;;11.77;2.83;;;28.00;99.90;;;;;;5006537;28;20485;-78
2022/10/27 12:07:48;;;;;;;6.27;2.27;;;28.10;99.90;;;;;;5007727;28;20455;-80
2022/10/27 12:10:23;;;;;;;6.90;2.60;;;28.60;99.90;;;;;;5009707;28;20533;-78
2022/10/27 12:12:54;;;;;;;8.80;2.60;;;28.80;99.90;;;;;;5007604;28;20431;-79
2022/10/27 12:15:27;;;;;;;10.73;2.90;;;28.60;99.90;;;;;;5005877;28;20473;-79
2022/10/27 12:18:00;;;;;;;10.10;2.40;;;28.60;99.90;;;;;;5005987;28;20478;-79
2022/10/27 12:20:40;;;;;;;9.60;2.43;;;28.80;99.90;;;;;;5005786;28;20458;-79
2022/10/27 12:23:09;;;;;;;10.77;2.80;;;29.00;99.90;;;;;;5005546;28;20527;-79
2022/10/27 12:25:41;;;;;;;7.07;2.20;;;29.10;99.90;;;;;;5004284;28;20455;-77
2022/10/27 12:28:15;;;;;;;14.50;3.30;;;29.00;99.90;;;;;;5006190;28;20437;-78
2022/10/27 12:30:45;;;;;;;6.47;2.43;;;28.90;99.90;;;;;;5005913;28;20482;-79
2022/10/27 12:33:19;;;;;;;5.97;2.50;;;28.90;99.90;;;;;;5006149;28;20459;-78
2022/10/27 12:35:50;;;;;;;6.20;2.57;;;29.00;99.90;;;;;;5006318;28;20449;-79
2022/10/27 12:38:22;;;;;;;8.53;2.30;;;29.00;99.90;;;;;;5005784;28;20479;-78
2022/10/27 12:40:56;;;;;;;6.30;2.33;;;28.90;99.90;;;;;;5006776;28;20474;-79
2022/10/27 12:43:36;;;;;;;7.10;2.67;;;29.00;99.90;;;;;;5005640;28;20463;-79
2022/10/27 12:46:16;;;;;;;8.53;2.33;;;29.20;99.90;;;;;;5004290;28;20457;-77
2022/10/27 12:48:52;;;;;;;7.50;2.20;;;29.40;99.90;;;;;;5004794;28;20451;-79
2022/10/27 12:51:30;;;;;;;10.40;2.33;;;29.30;99.90;;;;;;5004406;28;20861;-79
2022/10/27 12:54:05;;;;;;;9.17;2.70;;;29.30;99.90;;;;;;5005553;28;20447;-79
2022/10/27 12:56:42;;;;;;;5.70;2.10;;;29.20;99.90;;;;;;5005649;28;20455;-79
2022/10/27 12:59:20;;;;;;;7.13;2.50;;;29.30;99.90;;;;;;5006012;28;20434;-79
2022/10/27 13:01:55;;;;;;;7.03;2.80;;;29.20;99.90;;;;;;5003965;28;20482;-78
2022/10/27 13:04:48;;;;;;;7.37;2.60;;;29.20;99.90;;;;;;5005500;28;20509;-79
2022/10/27 13:07:54;;;;;;;6.00;2.40;;;29.20;99.90;;;;;;5005405;28;20919;-79
2022/10/27 13:10:43;;;;;;;7.23;2.37;;;29.10;99.90;;;;;;5005768;28;20465;-78
2022/10/27 13:13:27;;;;;;;4.63;2.33;;;29.00;99.90;;;;;;5005600;28;20526;-78
2022/10/27 13:16:06;;;;;;;9.27;3.10;;;29.10;99.90;;;;;;5004843;28;20458;-78
2022/10/27 13:18:50;;;;;;;5.53;2.10;;;29.00;99.90;;;;;;5005751;28;20501;-78
2022/10/27 13:21:24;;;;;;;5.00;2.10;;;28.90;99.90;;;;;;5005926;28;20490;-78
2022/10/27 13:24:00;;;;;;;8.50;2.40;;;28.90;99.90;;;;;;5005247;28;20457;-78
2022/10/27 13:26:33;;;;;;;7.87;2.87;;;28.90;99.90;;;;;;5004720;28;20458;-78
2022/10/27 13:29:04;;;;;;;11.30;2.43;;;28.90;99.90;;;;;;5006240;28;20461;-78
2022/10/27 13:31:32;;;;;;;7.57;2.10;;;28.90;99.90;;;;;;5005943;28;20848;-78
2022/10/27 13:34:02;;;;;;;9.60;2.43;;;28.80;99.90;;;;;;5006319;28;20465;-78
2022/10/27 13:36:29;;;;;;;6.20;2.70;;;28.80;99.90;;;;;;5006963;28;20465;-78
2022/10/27 13:39:40;;;;;;;6.00;2.63;;;28.80;99.90;;;;;;5009218;28;20536;-78
2022/10/27 13:42:15;;;;;;;5.73;2.40;;;28.70;99.90;;;;;;5010046;28;20470;-78
2022/10/27 13:44:42;;;;;;;9.20;2.60;;;28.60;99.90;;;;;;5008998;28;20914;-78
2022/10/27 13:47:19;;;;;;;5.00;2.20;;;28.60;99.90;;;;;;5009831;28;20951;-78
2022/10/27 13:49:59;;;;;;;6.73;1.83;;;28.60;99.90;;;;;;5010072;28;20454;-78
2022/10/27 13:52:28;;;;;;;9.33;2.60;;;28.40;99.90;;;;;;5009401;28;20481;-78
2022/10/27 13:55:04;;;;;;;6.83;2.27;;;28.40;99.90;;;;;;5009406;28;20463;-78
2022/10/27 13:58:04;;;;;;;10.00;2.77;;;28.40;99.90;;;;;;5012773;28;20502;-78
2022/10/27 14:01:09;;;;;;;9.00;2.80;;;28.30;99.90;;;;;;5011903;28;20465;-78
2022/10/27 14:03:57;;;;;;;7.97;2.40;;;28.20;99.90;;;;;;5010826;28;20938;-78
2022/10/27 14:06:31;;;;;;;6.03;2.50;;;28.20;99.90;;;;;;5010878;28;20446;-79
2022/10/27 14:09:10;;;;;;;5.90;2.40;;;28.10;99.90;;;;;;5010675;28;20431;-78
2022/10/27 14:11:37;;;;;;;5.87;2.70;;;28.00;99.90;;;;;;5008727;28;20478;-79
2022/10/27 14:14:16;;;;;;;4.07;1.70;;;28.00;99.90;;;;;;5010139;28;20455;-78
2022/10/27 14:16:43;;;;;;;8.87;2.40;;;28.00;99.90;;;;;;5011498;28;20462;-78
2022/10/27 14:19:16;;;;;;;6.60;2.00;;;28.00;99.90;;;;;;5011177;28;20877;-78
2022/10/27 14:21:46;;;;;;;6.70;2.20;;;28.00;99.90;;;;;;5009652;28;20478;-79
2022/10/27 14:24:19;;;;;;;7.63;2.30;;;27.90;99.90;;;;;;5008538;28;20473;-78
2022/10/27 14:26:45;;;;;;;6.70;2.40;;;27.80;99.90;;;;;;5009723;28;20462;-78
2022/10/27 14:29:20;;;;;;;6.40;2.37;;;27.90;99.90;;;;;;5010400;28;20490;-79
2022/10/27 14:31:47;;;;;;;8.33;2.40;;;27.80;99.90;;;;;;5009902;28;20478;-79
2022/10/27 14:34:21;;;;;;;5.70;2.43;;;27.80;99.90;;;;;;5009104;28;20569;-77
2022/10/27 14:36:49;;;;;;;7.23;2.60;;;27.70;99.90;;;;;;5009870;28;20459;-78
2022/10/27 14:39:24;;;;;;;7.40;2.27;;;27.60;99.90;;;;;;5009278;28;20501;-78
2022/10/27 14:41:53;;;;;;;7.10;2.40;;;27.70;99.90;;;;;;5009582;28;20482;-79
2022/10/27 14:44:25;;;;;;;7.77;2.17;;;27.70;99.90;;;;;;5009287;28;20471;-79
2022/10/27 14:46:55;;;;;;;10.00;2.30;;;27.90;99.90;;;;;;5009942;28;20541;-78
2022/10/27 14:49:29;;;;;;;5.47;2.27;;;28.10;99.90;;;;;;5007801;28;20463;-78
2022/10/27 14:51:57;;;;;;;4.93;2.00;;;28.30;99.90;;;;;;5007910;28;20490;-80
2022/10/27 14:54:25;;;;;;;10.07;2.90;;;28.30;99.90;;;;;;5008835;28;20884;-78
2022/10/27 14:56:52;;;;;;;5.07;1.97;;;28.40;99.90;;;;;;5010599;28;20454;-77
2022/10/27 14:59:21;;;;;;;10.13;2.50;;;28.50;99.90;;;;;;5017155;28;20509;-77
2022/10/27 15:01:48;;;;;;;6.77;2.80;;;28.60;99.90;;;;;;5012194;28;20602;-77
2022/10/27 15:04:21;;;;;;;7.97;2.33;;;28.50;99.90;;;;;;5008534;28;20903;-78
2022/10/27 15:06:51;;;;;;;9.23;2.73;;;28.40;99.90;;;;;;5008760;28;20465;-75
2022/10/27 15:09:31;;;;;;;8.60;3.20;;;28.20;99.90;;;;;;5008003;28;20462;-78
2022/10/27 15:12:04;;;;;;;8.13;2.40;;;27.90;99.90;;;;;;5008007;28;20485;-77
2022/10/27 15:14:32;;;;;;;7.03;2.97;;;27.70;99.90;;;;;;5007456;28;20455;-77
2022/10/27 15:17:00;;;;;;;9.87;2.90;;;27.40;99.90;;;;;;5008215;28;20467;-76
2022/10/27 15:19:27;;;;;;;7.63;2.60;;;27.20;99.90;;;;;;5007902;28;20502;-76
2022/10/27 15:21:56;;;;;;;6.43;2.20;;;26.80;99.90;;;;;;5007356;28;20486;-78
2022/10/27 15:24:25;;;;;;;6.07;2.13;;;26.50;99.90;;;;;;5006652;28;20447;-78
2022/10/27 15:26:53;;;;;;;9.10;2.50;;;26.30;99.90;;;;;;5007189;28;20478;-78
2022/10/27 15:29:21;;;;;;;6.33;2.77;;;26.00;99.90;;;;;;5007678;28;20469;-78
2022/10/27 15:31:57;;;;;;;6.90;2.37;;;25.80;99.90;;;;;;5007598;28;20479;-78
2022/10/27 15:34:32;;;;;;;10.00;2.53;;;25.50;99.90;;;;;;5006778;28;20453;-78
2022/10/27 15:37:27;;;;;;;12.70;2.93;;;25.30;99.90;;;;;;5007964;28;20485;-79
2022/10/27 15:39:55;;;;;;;9.90;2.20;;;25.10;99.90;;;;;;5007390;28;20499;-78
2022/10/27 15:42:26;;;;;;;8.10;2.40;;;24.90;99.90;;;;;;5006790;28;20852;-78
2022/10/27 15:44:53;;;;;;;9.27;2.80;;;24.70;99.90;;;;;;5006936;28;20549;-78
2022/10/27 15:47:39;;;;;;;6.40;2.37;;;24.50;99.90;;;;;;5007530;28;20490;-78
2022/10/27 15:50:22;;;;;;;10.37;3.60;;;24.30;99.90;;;;;;5007515;28;20770;-78
2022/10/27 15:52:52;;;;;;;9.40;3.20;;;24.20;99.90;;;;;;5007437;28;20462;-78
2022/10/27 15:55:22;;;;;;;9.50;2.83;;;24.00;99.90;;;;;;5006340;28;20451;-78
2022/10/27 15:57:49;;;;;;;10.70;3.70;;;23.90;99.90;;;;;;5006754;28;20457;-77
2022/10/27 16:00:23;;;;;;;6.03;3.10;;;23.70;99.90;;;;;;5005850;28;20474;-77
2022/10/27 16:02:55;;;;;;;9.20;3.17;;;23.60;99.90;;;;;;5007142;28;20524;-77
2022/10/27 16:05:39;;;;;;;11.53;3.17;;;23.50;99.90;;;;;;5006156;28;20447;-77
2022/10/27 16:08:40;;;;;;;6.33;3.13;;;23.30;99.90;;;;;;5007062;28;20458;-77
2022/10/27 16:11:12;;;;;;;10.33;3.00;;;23.20;99.90;;;;;;5000232;28;20858;-77
2022/10/27 16:13:40;;;;;;;6.53;3.67;;;23.00;99.90;;;;;;5006773;28;20558;-77
2022/10/27 16:16:08;;;;;;;9.17;3.70;;;22.90;99.90;;;;;;5006199;28;20462;-77
2022/10/27 16:18:35;;;;;;;9.90;3.77;;;22.70;99.90;;;;;;5006311;28;21084;-77
2022/10/27 16:21:01;;;;;;;7.43;3.10;;;22.60;99.90;;;;;;5006493;28;21025;-76
2022/10/27 16:23:28;;;;;;;8.53;3.70;;;22.40;99.90;;;;;;5006291;28;21141;-77
2022/10/27 16:25:56;;;;;;;9.97;3.13;;;22.30;99.90;;;;;;5006065;28;20465;-76
2022/10/27 16:28:27;;;;;;;13.80;4.10;;;22.20;99.90;;;;;;5006395;28;20455;-76
2022/10/27 16:30:54;;;;;;;7.97;3.10;;;22.10;99.90;;;;;;5006119;28;20486;-76
2022/10/27 16:33:23;;;;;;;9.53;3.33;;;22.00;99.90;;;;;;5006833;28;20459;-77
2022/10/27 16:35:50;;;;;;;6.40;3.03;;;21.90;99.90;;;;;;5006012;28;20462;-77
2022/10/27 16:38:17;;;;;;;8.13;2.90;;;21.80;99.90;;;;;;5006282;28;20490;-76
2022/10/27 16:40:46;;;;;;;8.50;3.57;;;21.60;99.90;;;;;;5005629;28;20485;-77
2022/10/27 16:43:22;;;;;;;8.77;3.40;;;21.50;99.90;;;;;;5006755;28;20462;-74
2022/10/27 16:45:49;;;;;;;11.60;3.57;;;21.40;99.90;;;;;;5006723;28;20435;-74
2022/10/27 16:48:16;;;;;;;11.70;4.20;;;21.30;99.90;;;;;;5006907;28;20451;-75
2022/10/27 16:50:45;;;;;;;7.20;3.13;;;21.20;99.90;;;;;;5005677;28;20479;-75
2022/10/27 16:53:12;;;;;;;10.90;3.93;;;21.10;99.90;;;;;;5005573;28;20463;-75
2022/10/27 16:55:39;;;;;;;8.77;3.90;;;21.10;99.90;;;;;;5006674;28;20463;-75
2022/10/27 16:58:06;;;;;;;9.97;3.00;;;20.90;99.90;;;;;;5005094;28;20481;-75
2022/10/27 17:00:34;;;;;;;9.00;3.40;;;20.80;99.90;;;;;;5006480;28;20463;-75
2022/10/27 17:03:01;;;;;;;10.67;3.90;;;20.80;99.90;;;;;;5006961;28;20442;-75
2022/10/27 17:05:27;;;;;;;6.80;3.90;;;20.70;99.90;;;;;;5006386;28;20455;-75